Time;durP1;ratioP1;P1;durP2;ratioP2;P2;SDS_P1;SDS_P2;PMS_P1;PMS_P2;Temp;Humidity;BMP_temperature;BMP_pressure;BME280_temperature;BME280_humidity;BME280_pressure;Samples;Min_cycle;Max_cycle;Signal;HPM_P1;HPM_P2
2022/03/23 00:00:26;;;;;;;12.00;7.10;;;-1.70;99.90;;;;;;5034861;28;20049;-89
2022/03/23 00:02:53;;;;;;;13.38;7.20;;;-1.70;99.90;;;;;;5037857;28;20053;-89
2022/03/23 00:05:20;;;;;;;13.00;6.70;;;-1.60;99.90;;;;;;5074685;28;20052;-89
2022/03/23 00:07:48;;;;;;;12.48;7.18;;;-1.50;99.90;;;;;;5058203;28;20480;-89
2022/03/23 00:10:15;;;;;;;8.63;6.88;;;-1.50;99.90;;;;;;5037561;28;20414;-90
2022/03/23 00:12:44;;;;;;;11.77;7.32;;;-1.50;99.90;;;;;;5038160;28;20079;-89
2022/03/23 00:15:12;;;;;;;11.45;7.07;;;-1.50;99.90;;;;;;5056234;28;20044;-90
2022/03/23 00:17:42;;;;;;;14.75;7.00;;;-1.50;99.90;;;;;;5057657;28;20423;-89
2022/03/23 00:20:09;;;;;;;16.48;6.80;;;-1.50;99.90;;;;;;5034659;28;20103;-90
2022/03/23 00:22:36;;;;;;;12.57;7.10;;;-1.50;99.90;;;;;;5034681;28;20132;-90
2022/03/23 00:25:03;;;;;;;10.65;7.10;;;-1.50;99.90;;;;;;5037866;28;20051;-90
2022/03/23 00:27:30;;;;;;;10.55;6.78;;;-1.50;99.90;;;;;;5045852;28;20060;-90
2022/03/23 00:29:57;;;;;;;12.70;6.78;;;-1.60;99.90;;;;;;5039275;28;20045;-91
2022/03/23 00:32:23;;;;;;;17.63;7.78;;;-1.60;99.90;;;;;;5037525;28;20501;-91
2022/03/23 00:34:50;;;;;;;11.23;7.32;;;-1.70;99.90;;;;;;5037751;28;20482;-91
2022/03/23 00:37:17;;;;;;;12.18;8.10;;;-1.70;99.90;;;;;;5037593;28;20057;-90
2022/03/23 00:39:44;;;;;;;14.57;8.18;;;-1.80;99.90;;;;;;5037396;28;20147;-90
2022/03/23 00:42:11;;;;;;;16.08;8.07;;;-1.90;99.90;;;;;;5037576;28;20135;-90
2022/03/23 00:44:37;;;;;;;15.93;8.43;;;-2.00;99.90;;;;;;5049666;28;20407;-91
2022/03/23 00:47:04;;;;;;;13.45;8.77;;;-2.00;99.90;;;;;;5057011;28;20056;-91
2022/03/23 00:49:31;;;;;;;13.05;8.75;;;-2.00;99.90;;;;;;5040972;28;20138;-90
2022/03/23 00:51:58;;;;;;;16.17;8.85;;;-2.10;99.90;;;;;;5036438;28;20045;-91
2022/03/23 00:54:25;;;;;;;16.42;9.45;;;-2.10;99.90;;;;;;5037184;28;20136;-91
2022/03/23 00:56:52;;;;;;;17.17;9.95;;;-2.20;99.90;;;;;;5037138;28;20056;-91
2022/03/23 00:59:19;;;;;;;18.08;10.65;;;-2.20;99.90;;;;;;5036795;28;20159;-92
2022/03/23 01:01:46;;;;;;;17.73;10.15;;;-2.20;99.90;;;;;;5037122;28;20045;-91
2022/03/23 01:04:13;;;;;;;17.08;9.20;;;-2.20;99.90;;;;;;5044984;28;20129;-90
2022/03/23 01:06:41;;;;;;;13.60;7.97;;;-2.20;99.90;;;;;;5057167;28;20493;-92
2022/03/23 01:09:08;;;;;;;14.65;8.13;;;-2.40;99.90;;;;;;5056446;28;20453;-91
2022/03/23 01:11:37;;;;;;;12.57;7.90;;;-2.30;99.90;;;;;;5056929;28;20071;-92
2022/03/23 01:14:05;;;;;;;13.98;8.65;;;-2.40;99.90;;;;;;5056664;28;20059;-92
2022/03/23 01:16:32;;;;;;;13.38;8.82;;;-2.40;99.90;;;;;;5057073;28;20080;-92
2022/03/23 01:19:00;;;;;;;15.43;9.35;;;-2.50;99.90;;;;;;5050796;28;20045;-92
2022/03/23 01:21:27;;;;;;;13.68;8.70;;;-2.40;99.90;;;;;;5036924;28;20611;-92
2022/03/23 01:23:54;;;;;;;15.35;8.57;;;-2.50;99.90;;;;;;5041286;28;20121;-92
2022/03/23 01:26:21;;;;;;;12.02;8.45;;;-2.50;99.90;;;;;;5056421;28;20072;-92
2022/03/23 01:28:48;;;;;;;15.45;8.88;;;-2.50;99.90;;;;;;5056389;28;20445;-92
2022/03/23 01:31:15;;;;;;;13.85;8.15;;;-2.40;99.90;;;;;;5056382;28;20132;-93
2022/03/23 01:33:42;;;;;;;14.05;8.23;;;-2.40;99.90;;;;;;5054713;28;20067;-93
2022/03/23 01:36:10;;;;;;;13.93;8.45;;;-2.40;99.90;;;;;;5036824;28;20045;-93
2022/03/23 01:38:37;;;;;;;13.05;9.02;;;-2.50;99.90;;;;;;5036593;28;20053;-92
2022/03/23 01:41:04;;;;;;;12.70;8.60;;;-2.60;99.90;;;;;;5036611;28;20056;-92
2022/03/23 01:43:33;;;;;;;12.23;7.70;;;-2.50;99.90;;;;;;5050574;28;20045;-93
2022/03/23 01:46:00;;;;;;;12.57;8.52;;;-2.60;99.90;;;;;;5036391;28;20049;-91
2022/03/23 01:48:27;;;;;;;17.77;8.88;;;-2.70;99.90;;;;;;5036057;28;20565;-93
2022/03/23 01:50:55;;;;;;;14.88;8.68;;;-2.60;99.90;;;;;;5034889;28;20056;-93
2022/03/23 01:53:22;;;;;;;14.00;8.55;;;-2.60;99.90;;;;;;5036152;28;20048;-93
2022/03/23 01:55:49;;;;;;;13.98;8.57;;;-2.60;99.90;;;;;;5035971;28;20415;-93
2022/03/23 01:58:20;;;;;;;14.00;8.35;;;-2.70;99.90;;;;;;5035820;28;20053;-93
2022/03/23 02:00:47;;;;;;;15.77;9.02;;;-2.80;99.90;;;;;;5033549;28;20056;-93
2022/03/23 02:03:15;;;;;;;15.80;8.10;;;-2.80;99.90;;;;;;5036045;28;20049;-93
2022/03/23 02:05:42;;;;;;;14.68;8.15;;;-2.80;99.90;;;;;;5035982;28;20063;-93
2022/03/23 02:08:10;;;;;;;12.63;8.60;;;-2.80;99.90;;;;;;5035685;28;20484;-93
2022/03/23 02:10:37;;;;;;;14.98;8.65;;;-3.00;99.90;;;;;;5035541;28;20051;-93
2022/03/23 02:13:05;;;;;;;16.50;9.07;;;-2.90;99.90;;;;;;5029070;28;20172;-94
2022/03/23 02:15:32;;;;;;;14.20;8.95;;;-3.00;99.90;;;;;;5026763;28;20041;-93
2022/03/23 02:17:59;;;;;;;14.25;9.38;;;-2.90;99.90;;;;;;5032992;28;20564;-94
2022/03/23 02:20:25;;;;;;;13.80;8.75;;;-2.80;99.90;;;;;;5031980;28;20151;-94
2022/03/23 02:22:53;;;;;;;16.63;9.38;;;-2.80;99.90;;;;;;5014596;28;20393;-93
2022/03/23 02:25:27;;;;;;;17.38;9.43;;;-2.90;99.90;;;;;;5016198;28;20481;-94
2022/03/23 02:27:54;;;;;;;17.90;9.70;;;-2.90;99.90;;;;;;5015985;28;20076;-93
2022/03/23 02:30:22;;;;;;;23.50;10.20;;;-2.90;99.90;;;;;;5048601;28;20497;-93
2022/03/23 02:32:49;;;;;;;14.88;9.80;;;-2.90;99.90;;;;;;5019056;28;20141;-93
2022/03/23 02:35:17;;;;;;;14.25;9.40;;;-2.80;99.90;;;;;;5016509;28;20128;-94
2022/03/23 02:37:44;;;;;;;15.15;10.00;;;-2.80;99.90;;;;;;5033499;28;20046;-94
2022/03/23 02:40:11;;;;;;;15.88;8.77;;;-2.80;99.90;;;;;;5035845;28;20135;-94
2022/03/23 02:42:39;;;;;;;16.40;8.93;;;-2.90;99.90;;;;;;5036704;28;20060;-95
2022/03/23 02:45:07;;;;;;;15.93;9.13;;;-3.00;99.90;;;;;;5042182;28;20079;-94
2022/03/23 02:47:34;;;;;;;13.68;8.52;;;-2.90;99.90;;;;;;5056075;28;20063;-94
2022/03/23 02:50:01;;;;;;;14.85;9.60;;;-3.00;99.90;;;;;;5062456;28;20086;-94
2022/03/23 02:52:28;;;;;;;16.85;9.40;;;-3.00;99.90;;;;;;5062308;28;20048;-95
2022/03/23 03:03:49;;;;;;;16.65;8.93;;;;;;;;;;5039973;28;20076;-95
2022/03/23 03:06:16;;;;;;;15.77;9.52;;;-3.30;99.90;;;;;;5028743;28;20235;-96
2022/03/23 03:08:45;;;;;;;13.32;8.05;;;-3.30;99.90;;;;;;5041862;28;20052;-95
2022/03/23 03:11:12;;;;;;;16.30;9.13;;;-3.30;99.90;;;;;;5047827;28;20131;-95
2022/03/23 03:13:40;;;;;;;17.15;9.23;;;-3.40;99.90;;;;;;5062122;28;20056;-95
2022/03/23 03:16:07;;;;;;;16.90;9.38;;;-3.40;99.90;;;;;;5061256;28;20131;-95
2022/03/23 03:18:34;;;;;;;19.90;10.30;;;-3.40;99.90;;;;;;5061622;28;20052;-96
2022/03/23 03:21:07;;;;;;;17.63;9.88;;;-3.40;99.90;;;;;;5077858;28;20158;-96
2022/03/23 03:23:36;;;;;;;15.90;10.13;;;-3.40;99.90;;;;;;5062148;28;20052;-96
2022/03/23 03:26:06;;;;;;;17.25;9.98;;;-3.40;99.90;;;;;;5077984;28;20132;-96
2022/03/23 03:28:35;;;;;;;17.20;10.85;;;-3.40;99.90;;;;;;5061698;28;20511;-96
2022/03/23 03:31:03;;;;;;;17.25;10.40;;;-3.30;99.90;;;;;;5074512;28;20135;-96
2022/03/23 03:33:31;;;;;;;21.27;11.07;;;-3.30;99.90;;;;;;5041666;28;20052;-96
2022/03/23 03:35:57;;;;;;;19.02;10.73;;;-3.20;99.90;;;;;;5044522;28;20419;-95
2022/03/23 03:38:24;;;;;;;17.00;9.90;;;-3.20;99.90;;;;;;5077488;28;20122;-96
2022/03/23 03:40:52;;;;;;;17.55;10.10;;;-3.40;99.90;;;;;;5060060;28;20048;-96
2022/03/23 03:43:18;;;;;;;17.67;9.43;;;-3.40;99.90;;;;;;5041774;28;20063;-96
2022/03/23 03:45:45;;;;;;;15.18;10.25;;;-3.40;99.90;;;;;;5038882;28;20049;-96
2022/03/23 03:48:13;;;;;;;18.38;9.93;;;-3.50;99.90;;;;;;5041143;28;20061;-95
2022/03/23 03:50:40;;;;;;;14.88;10.13;;;-3.50;99.90;;;;;;5041738;28;20047;-95
2022/03/23 03:53:10;;;;;;;16.85;10.60;;;-3.40;99.90;;;;;;5050496;28;20160;-96
2022/03/23 03:55:37;;;;;;;20.80;11.05;;;-3.50;99.90;;;;;;5055954;28;20049;-95
2022/03/23 03:58:05;;;;;;;18.15;10.48;;;-3.50;99.90;;;;;;5047520;28;20064;-95
2022/03/23 04:00:34;;;;;;;22.58;11.15;;;-3.60;99.90;;;;;;5037915;28;20088;-96
2022/03/23 04:03:02;;;;;;;22.95;10.98;;;-3.60;99.90;;;;;;5073350;28;20048;-96
2022/03/23 04:05:29;;;;;;;29.15;15.75;;;-3.60;99.90;;;;;;5058470;28;20515;-96
2022/03/23 04:07:56;;;;;;;67.07;34.15;;;-3.50;99.90;;;;;;5045217;28;20113;-96
2022/03/23 04:10:25;;;;;;;42.17;21.83;;;-3.60;99.90;;;;;;5058631;28;20135;-96
2022/03/23 04:12:53;;;;;;;35.38;19.73;;;-3.60;99.90;;;;;;5042224;28;20044;-96
2022/03/23 04:15:20;;;;;;;29.98;17.33;;;-3.60;99.90;;;;;;5044388;28;20277;-96
2022/03/23 04:17:48;;;;;;;28.30;15.05;;;-3.60;99.90;;;;;;5059544;28;20048;-96
2022/03/23 04:20:15;;;;;;;26.38;14.05;;;-3.60;99.90;;;;;;5058744;28;20589;-96
2022/03/23 04:22:43;;;;;;;26.92;14.80;;;-3.70;99.90;;;;;;5058334;28;20074;-96
2022/03/23 04:25:12;;;;;;;33.63;16.90;;;-3.70;99.90;;;;;;5058118;28;20048;-95
2022/03/23 04:27:57;;;;;;;29.20;14.70;;;-3.70;99.90;;;;;;5060459;28;20048;-96
2022/03/23 04:30:31;;;;;;;30.08;16.20;;;-3.70;99.90;;;;;;5038319;28;20475;-96
2022/03/23 04:32:59;;;;;;;30.83;15.40;;;-3.70;99.90;;;;;;5053745;28;20044;-96
2022/03/23 04:35:26;;;;;;;32.97;16.10;;;-3.70;99.90;;;;;;5059210;28;20131;-96
2022/03/23 04:37:53;;;;;;;33.47;15.07;;;-3.70;99.90;;;;;;5058704;28;20055;-96
2022/03/23 04:40:22;;;;;;;32.15;15.93;;;-3.80;99.90;;;;;;5059728;28;20112;-96
2022/03/23 04:42:49;;;;;;;36.40;17.45;;;-3.80;99.90;;;;;;5059326;28;20584;-95
2022/03/23 04:45:17;;;;;;;36.65;17.65;;;-3.90;99.90;;;;;;5057451;28;20082;-96
2022/03/23 04:47:44;;;;;;;35.80;16.17;;;-3.70;99.90;;;;;;5057099;28;20072;-96
2022/03/23 04:50:12;;;;;;;31.80;16.92;;;-3.70;99.90;;;;;;5057718;28;20068;-94
2022/03/23 04:52:41;;;;;;;34.67;17.05;;;-3.70;99.90;;;;;;5045075;28;20446;-96
2022/03/23 04:55:09;;;;;;;28.63;16.38;;;-3.70;99.90;;;;;;5041492;28;20485;-93
2022/03/23 04:57:36;;;;;;;33.50;15.15;;;-3.80;99.90;;;;;;5038312;28;20102;-95
2022/03/23 05:00:10;;;;;;;29.05;14.82;;;-3.80;99.90;;;;;;5037636;28;20135;-96
2022/03/23 05:02:44;;;;;;;31.35;15.57;;;-3.80;99.90;;;;;;5038248;28;20069;-95
2022/03/23 05:05:12;;;;;;;32.58;14.38;;;-3.80;99.90;;;;;;5037492;28;20051;-96
2022/03/23 05:07:40;;;;;;;27.00;14.88;;;-3.80;99.90;;;;;;5039068;28;20160;-96
2022/03/23 05:10:08;;;;;;;29.38;14.63;;;-3.90;99.90;;;;;;5056967;28;20048;-96
2022/03/23 05:12:43;;;;;;;30.35;15.68;;;-3.90;99.90;;;;;;5057345;28;20052;-95
2022/03/23 05:15:11;;;;;;;26.15;14.95;;;-3.90;99.90;;;;;;5056790;28;20075;-96
2022/03/23 05:17:38;;;;;;;29.95;15.85;;;-3.90;99.90;;;;;;5046281;28;20055;-96
2022/03/23 05:20:14;;;;;;;29.42;14.77;;;-3.90;99.90;;;;;;5038292;28;20044;-96
2022/03/23 05:22:42;;;;;;;26.13;15.10;;;-4.00;99.90;;;;;;5021206;28;20044;-95
2022/03/23 05:25:08;;;;;;;31.42;15.48;;;-4.00;99.90;;;;;;5037608;28;20523;-96
2022/03/23 05:27:39;;;;;;;26.85;15.13;;;-4.00;99.90;;;;;;5056161;28;20131;-96
2022/03/23 05:30:09;;;;;;;33.15;15.38;;;-3.90;99.90;;;;;;5071436;28;20064;-95
2022/03/23 05:32:35;;;;;;;25.90;15.23;;;-3.90;99.90;;;;;;5053473;28;20072;-95
2022/03/23 05:35:03;;;;;;;31.20;15.40;;;-3.90;99.90;;;;;;5075447;28;20610;-95
2022/03/23 05:37:30;;;;;;;33.58;18.17;;;-3.80;99.90;;;;;;5048672;28;20124;-96
2022/03/23 05:39:59;;;;;;;28.70;15.77;;;-3.80;99.90;;;;;;5054678;28;20088;-95
2022/03/23 05:42:25;;;;;;;29.38;15.38;;;-3.80;99.90;;;;;;5036961;28;20041;-95
2022/03/23 05:44:53;;;;;;;33.58;15.68;;;-3.60;99.90;;;;;;5021542;28;20052;-96
2022/03/23 05:47:34;;;;;;;28.50;14.48;;;-3.60;99.90;;;;;;5053669;28;20055;-95
2022/03/23 05:50:01;;;;;;;26.35;14.00;;;-3.60;99.90;;;;;;5054381;28;20480;-95
2022/03/23 05:52:27;;;;;;;26.35;14.48;;;-3.50;99.90;;;;;;5054370;28;20048;-95
2022/03/23 05:54:55;;;;;;;24.48;14.52;;;-3.40;99.90;;;;;;5054648;28;20052;-95
2022/03/23 05:57:22;;;;;;;28.83;14.77;;;-3.30;99.90;;;;;;5060269;28;20044;-96
2022/03/23 05:59:49;;;;;;;26.45;14.25;;;-3.20;99.90;;;;;;5072934;28;20416;-96
2022/03/23 06:02:16;;;;;;;24.25;13.32;;;-3.10;99.90;;;;;;5074833;28;20051;-95
2022/03/23 06:04:43;;;;;;;27.45;15.10;;;-3.10;99.90;;;;;;5074036;28;20060;-95
2022/03/23 06:07:13;;;;;;;31.70;16.17;;;-3.00;99.90;;;;;;5072260;28;20068;-95
2022/03/23 06:09:42;;;;;;;23.63;14.18;;;-3.00;99.90;;;;;;5065053;28;20044;-95
2022/03/23 06:12:12;;;;;;;24.75;13.32;;;-2.90;99.90;;;;;;5068495;28;20058;-95
2022/03/23 06:14:42;;;;;;;27.05;15.07;;;-2.90;99.90;;;;;;5041661;28;20059;-95
2022/03/23 06:17:13;;;;;;;36.90;18.92;;;-2.80;99.90;;;;;;5044511;28;20048;-95
2022/03/23 06:19:39;;;;;;;25.63;15.90;;;-2.80;99.90;;;;;;5056324;28;20059;-95
2022/03/23 06:22:06;;;;;;;30.23;15.18;;;-2.70;99.90;;;;;;5053147;28;20112;-95
2022/03/23 06:24:33;;;;;;;28.52;15.48;;;-2.60;99.90;;;;;;5036203;28;20059;-94
2022/03/23 06:27:00;;;;;;;32.65;17.70;;;-2.50;99.90;;;;;;5038194;28;20429;-95
2022/03/23 06:29:28;;;;;;;53.95;20.30;;;-2.50;99.90;;;;;;5056567;28;20132;-94
2022/03/23 06:31:55;;;;;;;43.63;22.42;;;-2.40;99.90;;;;;;5055548;28;20131;-95
2022/03/23 06:34:21;;;;;;;52.53;23.60;;;-2.20;99.90;;;;;;5036306;28;20048;-94
2022/03/23 06:36:48;;;;;;;44.92;21.90;;;-1.30;99.90;;;;;;5035821;28;20436;-93
2022/03/23 06:39:15;;;;;;;47.35;19.30;;;-0.30;99.90;;;;;;5055597;28;20060;-92
2022/03/23 06:41:42;;;;;;;34.40;14.15;;;0.90;99.90;;;;;;5056562;28;20127;-92
2022/03/23 06:44:08;;;;;;;25.33;12.18;;;1.30;99.90;;;;;;5050231;28;20075;-91
2022/03/23 06:46:36;;;;;;;28.67;12.07;;;2.00;99.90;;;;;;5037948;28;20081;-91
2022/03/23 06:49:05;;;;;;;20.80;10.38;;;2.20;99.90;;;;;;5053033;28;20060;-91
2022/03/23 06:51:33;;;;;;;25.45;11.07;;;2.90;99.90;;;;;;5055409;28;20049;-90
2022/03/23 06:53:59;;;;;;;26.08;9.85;;;3.40;99.90;;;;;;5038492;28;20052;-90
2022/03/23 06:56:26;;;;;;;31.15;10.30;;;3.60;99.90;;;;;;5035817;28;20045;-89
2022/03/23 06:58:53;;;;;;;41.83;11.60;;;4.00;99.90;;;;;;5068554;28;20071;-89
2022/03/23 07:01:19;;;;;;;29.23;10.18;;;4.10;99.90;;;;;;5055328;28;20049;-89
2022/03/23 07:03:48;;;;;;;31.50;10.10;;;4.00;99.90;;;;;;5058089;28;20374;-88
2022/03/23 07:06:16;;;;;;;37.10;10.70;;;4.90;99.90;;;;;;5035062;28;20144;-88
2022/03/23 07:11:30;;;;;;;23.38;9.65;;;5.20;99.90;;;;;;5072868;28;20051;-88
2022/03/23 07:13:57;;;;;;;25.75;9.98;;;4.80;99.90;;;;;;5039508;28;20055;-88
2022/03/23 07:16:24;;;;;;;33.75;10.80;;;4.50;99.90;;;;;;5044359;28;20041;-87
2022/03/23 07:18:51;;;;;;;30.33;10.40;;;4.80;99.90;;;;;;5054526;28;20075;-87
2022/03/23 07:21:18;;;;;;;29.50;9.70;;;5.00;99.90;;;;;;5054981;28;20055;-88
2022/03/23 07:23:45;;;;;;;25.90;9.52;;;5.60;99.90;;;;;;5055154;28;20053;-88
2022/03/23 07:26:11;;;;;;;26.38;9.32;;;6.00;99.90;;;;;;5072743;28;20048;-88
2022/03/23 07:28:38;;;;;;;24.05;9.75;;;7.20;99.90;;;;;;5072529;28;20439;-87
2022/03/23 07:31:05;;;;;;;34.25;10.30;;;8.50;99.90;;;;;;5059177;28;20059;-87
2022/03/23 07:33:32;;;;;;;20.67;9.63;;;9.00;97.20;;;;;;5077305;28;20052;-87
2022/03/23 07:35:59;;;;;;;18.58;9.00;;;8.20;97.30;;;;;;5059769;28;20060;-88
2022/03/23 07:38:26;;;;;;;32.78;10.35;;;8.40;97.00;;;;;;5058741;28;20051;-87
2022/03/23 07:40:53;;;;;;;25.38;10.02;;;9.10;95.90;;;;;;5077098;28;20056;-87
2022/03/23 07:43:20;;;;;;;34.03;12.35;;;10.90;91.60;;;;;;5060826;28;20072;-86
2022/03/23 07:45:47;;;;;;;51.65;11.30;;;11.00;88.50;;;;;;5072148;28;20045;-87
2022/03/23 07:48:18;;;;;;;31.15;9.40;;;11.80;84.80;;;;;;5038452;28;20142;-87
2022/03/23 07:50:44;;;;;;;41.10;9.02;;;13.40;80.20;;;;;;5038294;28;20056;-87
2022/03/23 07:53:11;;;;;;;37.95;9.35;;;14.80;74.00;;;;;;5038444;28;20053;-86
2022/03/23 07:55:38;;;;;;;30.33;8.73;;;16.00;67.60;;;;;;5056006;28;20051;-87
2022/03/23 07:58:05;;;;;;;26.23;8.85;;;16.80;61.30;;;;;;5042209;28;20552;-85
2022/03/23 08:00:32;;;;;;;20.13;8.30;;;16.90;59.30;;;;;;5045578;28;20045;-87
2022/03/23 08:02:59;;;;;;;30.90;9.05;;;17.40;57.90;;;;;;5062146;28;20542;-87
2022/03/23 08:05:27;;;;;;;25.52;9.25;;;16.30;59.40;;;;;;5058435;28;20041;-85
2022/03/23 08:07:54;;;;;;;43.72;10.38;;;17.50;58.60;;;;;;5054488;28;20103;-85
2022/03/23 08:10:20;;;;;;;40.42;9.07;;;18.10;56.90;;;;;;5055468;28;20045;-85
2022/03/23 08:12:47;;;;;;;29.48;9.18;;;18.70;55.80;;;;;;5056825;28;20423;-85
2022/03/23 08:15:14;;;;;;;37.00;20.02;;;19.30;53.70;;;;;;5057513;28;20059;-84
2022/03/23 08:17:43;;;;;;;29.27;11.50;;;19.60;53.40;;;;;;5055837;28;20049;-85
2022/03/23 08:22:57;;;;;;;27.48;9.63;;;19.20;51.60;;;;;;5074811;28;20075;-84
2022/03/23 08:25:27;;;;;;;28.42;9.85;;;18.80;51.50;;;;;;5075091;28;20048;-85
2022/03/23 08:27:55;;;;;;;36.20;12.52;;;19.40;51.20;;;;;;5072603;28;20049;-85
2022/03/23 08:30:22;;;;;;;30.48;12.98;;;19.30;50.40;;;;;;5037826;28;20052;-85
2022/03/23 08:32:49;;;;;;;41.45;18.83;;;18.90;50.80;;;;;;5056711;28;20119;-85
2022/03/23 08:35:16;;;;;;;55.25;27.35;;;19.00;49.90;;;;;;5057278;28;20089;-84
2022/03/23 08:37:43;;;;;;;44.75;11.10;;;19.30;50.40;;;;;;5074605;28;20084;-85
2022/03/23 08:40:10;;;;;;;42.92;20.88;;;19.70;49.60;;;;;;5074409;28;20044;-85
2022/03/23 08:42:38;;;;;;;36.13;13.52;;;20.20;49.60;;;;;;5074300;28;20472;-85
2022/03/23 08:45:06;;;;;;;30.50;16.73;;;21.20;48.50;;;;;;5056665;28;20052;-85
2022/03/23 08:47:32;;;;;;;23.00;12.35;;;20.90;47.10;;;;;;5056528;28;20064;-85
2022/03/23 08:50:00;;;;;;;33.58;15.30;;;20.80;47.40;;;;;;5036563;28;20061;-85
2022/03/23 08:52:29;;;;;;;18.17;7.95;;;21.50;46.80;;;;;;5036983;28;20049;-85
2022/03/23 08:54:56;;;;;;;19.38;7.07;;;21.50;46.70;;;;;;5037019;28;20049;-85
2022/03/23 08:57:23;;;;;;;9.88;6.45;;;21.40;46.40;;;;;;5037036;28;20044;-85
2022/03/23 08:59:50;;;;;;;13.02;5.97;;;21.40;46.00;;;;;;5054261;28;20303;-85
2022/03/23 09:02:17;;;;;;;17.75;7.13;;;21.60;46.40;;;;;;5036734;28;20053;-85
2022/03/23 09:04:44;;;;;;;10.18;6.38;;;21.20;45.40;;;;;;5052292;28;20052;-85
2022/03/23 09:07:11;;;;;;;13.43;6.40;;;21.40;45.60;;;;;;5056904;28;20054;-86
2022/03/23 09:09:37;;;;;;;12.45;6.97;;;21.10;47.80;;;;;;5042658;28;20093;-85
2022/03/23 09:12:05;;;;;;;14.57;6.45;;;21.00;47.20;;;;;;5053832;28;20410;-86
2022/03/23 09:14:32;;;;;;;18.77;6.93;;;21.70;46.50;;;;;;5048200;28;20049;-85
2022/03/23 09:16:59;;;;;;;17.08;7.35;;;22.40;45.50;;;;;;5049934;28;20056;-85
2022/03/23 09:19:25;;;;;;;18.38;7.65;;;22.70;44.30;;;;;;5061897;28;20378;-86
2022/03/23 09:21:54;;;;;;;12.18;6.90;;;22.70;43.80;;;;;;5053953;28;20051;-85
2022/03/23 09:24:27;;;;;;;10.73;6.60;;;23.50;43.60;;;;;;5049960;28;20045;-86
2022/03/23 09:26:55;;;;;;;7.68;5.85;;;22.90;44.10;;;;;;5056523;28;20071;-85
2022/03/23 09:29:22;;;;;;;15.05;6.50;;;23.20;46.00;;;;;;5056177;28;20045;-86
2022/03/23 09:31:49;;;;;;;8.27;5.80;;;23.50;45.30;;;;;;5074039;28;20059;-86
2022/03/23 09:34:17;;;;;;;12.82;6.35;;;23.60;45.30;;;;;;5056330;28;20051;-86
2022/03/23 09:39:29;;;;;;;14.73;6.75;;;23.90;44.70;;;;;;5073581;28;20049;-86
2022/03/23 09:41:57;;;;;;;14.82;6.28;;;23.90;44.80;;;;;;5056042;28;20054;-85
2022/03/23 09:44:28;;;;;;;13.63;6.57;;;23.70;44.30;;;;;;5045289;28;20055;-86
2022/03/23 09:46:56;;;;;;;10.80;6.30;;;23.30;43.50;;;;;;5035716;28;20412;-86
2022/03/23 09:49:25;;;;;;;11.05;6.10;;;24.40;43.40;;;;;;5046480;28;20055;-86
2022/03/23 09:51:53;;;;;;;12.27;6.25;;;25.40;39.90;;;;;;5055908;28;20056;-86
2022/03/23 09:54:21;;;;;;;7.57;6.15;;;24.80;38.90;;;;;;5073296;28;20055;-86
2022/03/23 09:56:49;;;;;;;11.27;7.50;;;23.70;40.20;;;;;;5056197;28;20052;-86
2022/03/23 09:59:16;;;;;;;10.63;6.90;;;23.90;40.30;;;;;;5055584;28;20059;-86
2022/03/23 10:02:18;;;;;;;8.63;6.18;;;24.50;41.10;;;;;;5055968;28;20055;-86
2022/03/23 10:05:22;;;;;;;13.63;6.40;;;26.40;39.70;;;;;;5022421;28;20049;-86
2022/03/23 10:08:37;;;;;;;12.40;6.38;;;26.70;38.20;;;;;;4974373;28;20105;-86
2022/03/23 10:11:42;;;;;;;11.60;8.30;;;26.10;36.70;;;;;;5035724;28;20588;-85
2022/03/23 10:14:30;;;;;;;9.95;7.43;;;26.10;37.20;;;;;;5052988;28;20084;-85
2022/03/23 10:17:34;;;;;;;11.85;8.35;;;27.60;36.60;;;;;;5035706;28;20045;-86
2022/03/23 10:20:02;;;;;;;9.32;7.38;;;27.40;35.10;;;;;;5052980;28;20048;-86
2022/03/23 10:22:30;;;;;;;9.02;6.78;;;26.70;36.80;;;;;;5035732;28;20515;-86
2022/03/23 10:25:08;;;;;;;9.60;6.60;;;27.00;36.00;;;;;;5047812;28;20045;-86
2022/03/23 10:27:35;;;;;;;12.82;6.88;;;28.80;35.10;;;;;;5056167;28;20099;-86
2022/03/23 10:30:03;;;;;;;7.10;6.40;;;29.20;33.90;;;;;;5058599;28;20052;-86
2022/03/23 10:32:37;;;;;;;9.77;8.27;;;28.30;33.60;;;;;;5047610;28;20049;-87
2022/03/23 10:35:09;;;;;;;9.63;8.25;;;27.20;33.30;;;;;;5051790;28;20049;-86
2022/03/23 10:37:36;;;;;;;9.13;7.90;;;26.30;35.00;;;;;;5052234;28;20045;-86
2022/03/23 10:40:08;;;;;;;13.05;7.97;;;25.30;36.10;;;;;;5064496;28;20492;-86
2022/03/23 10:42:38;;;;;;;12.00;8.13;;;25.00;35.90;;;;;;5055453;28;20044;-86
2022/03/23 10:45:18;;;;;;;13.23;9.20;;;26.70;36.10;;;;;;5042324;28;20064;-87
2022/03/23 10:47:46;;;;;;;19.80;11.43;;;26.40;35.80;;;;;;5052656;28;20548;-86
2022/03/23 10:50:19;;;;;;;19.25;11.10;;;28.20;36.40;;;;;;5044948;28;20085;-86
2022/03/23 10:52:54;;;;;;;12.70;8.55;;;26.90;35.60;;;;;;5051956;28;20048;-86
2022/03/23 10:55:22;;;;;;;9.75;8.45;;;28.40;34.60;;;;;;5035327;28;20130;-86
2022/03/23 10:57:58;;;;;;;12.35;8.85;;;26.70;35.00;;;;;;5035592;28;20409;-86
2022/03/23 11:00:35;;;;;;;10.73;8.25;;;27.10;36.00;;;;;;5052549;28;20064;-87
2022/03/23 11:03:04;;;;;;;15.60;10.65;;;26.80;35.00;;;;;;5053014;28;20136;-87
2022/03/23 11:05:42;;;;;;;21.08;8.30;;;28.70;34.80;;;;;;5070394;28;20060;-87
2022/03/23 11:08:23;;;;;;;11.10;8.82;;;29.70;33.70;;;;;;5053001;28;20079;-86
2022/03/23 11:16:36;;;;;;;10.70;7.05;;;30.90;31.80;;;;;;5039633;28;20413;-87
2022/03/23 11:19:10;;;;;;;13.35;8.80;;;31.20;31.20;;;;;;5039060;28;20123;-87
2022/03/23 11:22:09;;;;;;;9.70;8.32;;;28.10;32.30;;;;;;5055614;28;20055;-87
2022/03/23 11:24:38;;;;;;;9.15;7.10;;;28.80;34.50;;;;;;5056158;28;20059;-87
2022/03/23 11:27:10;;;;;;;9.60;7.38;;;28.60;32.90;;;;;;5056482;28;20049;-87
2022/03/23 11:29:39;;;;;;;8.88;7.97;;;29.20;32.70;;;;;;5063630;28;20084;-87
2022/03/23 11:32:18;;;;;;;10.85;7.65;;;30.00;32.00;;;;;;5076364;28;20054;-87
2022/03/23 11:34:48;;;;;;;7.95;7.00;;;29.80;32.60;;;;;;5068375;28;20045;-86
2022/03/23 11:37:19;;;;;;;11.27;7.60;;;30.20;33.20;;;;;;5038679;28;20045;-86
2022/03/23 11:39:46;;;;;;;11.68;7.72;;;29.40;32.40;;;;;;5064297;28;20453;-87
2022/03/23 11:42:14;;;;;;;9.93;7.65;;;28.80;33.30;;;;;;5058883;28;20389;-87
2022/03/23 11:44:42;;;;;;;7.40;6.70;;;29.90;32.60;;;;;;5065008;28;20138;-87
2022/03/23 11:47:25;;;;;;;7.60;6.82;;;30.70;33.30;;;;;;5061440;28;20067;-87
2022/03/23 11:50:05;;;;;;;9.02;7.55;;;30.90;32.70;;;;;;5050782;28;20522;-87
2022/03/23 11:52:39;;;;;;;7.45;6.80;;;30.10;31.40;;;;;;5056459;28;20132;-87
2022/03/23 11:55:39;;;;;;;9.18;7.30;;;30.00;32.60;;;;;;5048158;28;20052;-87
2022/03/23 11:58:15;;;;;;;13.63;7.55;;;28.40;31.50;;;;;;5058525;28;20044;-87
2022/03/23 12:00:53;;;;;;;7.80;7.03;;;29.30;32.60;;;;;;5074481;28;20053;-86
2022/03/23 12:03:38;;;;;;;7.60;6.90;;;29.80;31.80;;;;;;5076253;28;20118;-87
2022/03/23 12:06:09;;;;;;;8.88;7.22;;;29.10;32.30;;;;;;5057767;28;20048;-87
2022/03/23 12:08:58;;;;;;;9.73;6.78;;;28.60;32.20;;;;;;5058777;28;20059;-87
2022/03/23 12:11:43;;;;;;;10.65;7.35;;;27.30;32.90;;;;;;5075480;28;20052;-87
2022/03/23 12:14:36;;;;;;;8.75;6.75;;;27.20;33.30;;;;;;5074854;28;20087;-84
2022/03/23 12:17:15;;;;;;;8.95;6.95;;;26.00;34.60;;;;;;5043972;28;20087;-85
2022/03/23 12:20:03;;;;;;;28.05;8.60;;;27.40;35.00;;;;;;5037753;28;20052;-84
2022/03/23 12:22:48;;;;;;;9.48;7.68;;;27.90;34.00;;;;;;5055174;28;20059;-87
2022/03/23 12:25:30;;;;;;;10.35;7.60;;;27.90;33.20;;;;;;5033950;28;20071;-87
2022/03/23 12:28:10;;;;;;;10.13;7.78;;;27.40;33.90;;;;;;5037443;28;20049;-87
2022/03/23 12:31:00;;;;;;;11.30;7.57;;;25.60;34.60;;;;;;5054365;28;20041;-87
2022/03/23 12:33:29;;;;;;;13.25;7.90;;;25.00;35.60;;;;;;5037894;28;20051;-86
2022/03/23 12:36:03;;;;;;;8.68;7.78;;;24.90;36.10;;;;;;5038010;28;20053;-87
2022/03/23 12:38:32;;;;;;;;;;;25.30;34.80;;;;;;5037990;28;20049;-88
2022/03/23 12:41:05;;;;;;;8.27;7.15;;;25.20;34.60;;;;;;5054499;28;20028;-87
2022/03/23 12:43:39;;;;;;;10.05;7.57;;;24.90;35.60;;;;;;5037452;28;20143;-87
2022/03/23 12:46:18;;;;;;;11.45;7.70;;;25.30;35.70;;;;;;5058617;28;20092;-87
2022/03/23 12:57:52;;;;;;;14.40;8.20;;;24.80;38.10;;;;;;5055224;28;20078;-85
2022/03/23 13:00:31;;;;;;;10.32;7.65;;;24.50;35.90;;;;;;5043038;28;20144;-86
2022/03/23 13:03:04;;;;;;;10.73;8.10;;;24.50;37.40;;;;;;5038069;28;20056;-87
2022/03/23 13:05:36;;;;;;;9.00;7.13;;;24.20;37.50;;;;;;5040865;28;20049;-87
2022/03/23 13:08:40;;;;;;;7.90;6.97;;;24.20;39.00;;;;;;5057038;28;20049;-87
2022/03/23 13:11:09;;;;;;;9.93;7.25;;;24.20;37.80;;;;;;5033258;28;20454;-86
2022/03/23 13:13:40;;;;;;;8.68;7.70;;;24.20;38.20;;;;;;5056998;28;20045;-87
2022/03/23 13:16:15;;;;;;;11.13;8.23;;;23.60;37.20;;;;;;5056050;28;20049;-87
2022/03/23 13:18:44;;;;;;;10.90;8.10;;;23.40;38.40;;;;;;5074155;28;20075;-87
2022/03/23 13:21:21;;;;;;;10.20;7.75;;;23.80;37.80;;;;;;5073894;28;20051;-87